Kamensk-Ural'skiy, Russia
Current Conditions -  °F | °C
As of 1:30 PM on Friday 21 Nov 2014 (Local Time) from USSS Reporting Station
Broken Clouds Broken Clouds  
Wind Chill: 23°   Ceiling: 1800
Heat Index: 34°   Visibility: 6mi
Dew Point: 30°   Wind: 18mph
Humidity: 87%   Direction: 280°W
Pressure: 30.12"   Gusts: NA
Location:  56.43°N, 61.87°E
Report Text: USSS 210830Z 28008MPS 9999 BKN018 BKN067 01/M01 Q1020 7629//35TEMPO 27013MPS RMK QFE744
Loading
Personal Weather Stations






























Interactive Weather Map New forecast layout! Learn more

10-Day Weather Forecast

Advertisements
Track Severe Weather on mobile